sensor_id;sensor_type;location;lat;lon;timestamp;temperature;humidity
65692;DHT22;52411;52.716;6.696;2022-11-15T00:01:31;7.00;99.90
65692;DHT22;52411;52.716;6.696;2022-11-15T00:03:57;7.10;99.90
65692;DHT22;52411;52.716;6.696;2022-11-15T00:06:23;7.20;99.90
65692;DHT22;52411;52.716;6.696;2022-11-15T00:08:48;7.30;99.90
65692;DHT22;52411;52.716;6.696;2022-11-15T00:11:14;7.40;99.90
65692;DHT22;52411;52.716;6.696;2022-11-15T00:13:40;7.50;99.90
65692;DHT22;52411;52.716;6.696;2022-11-15T00:16:05;7.60;99.90
65692;DHT22;52411;52.716;6.696;2022-11-15T00:18:31;7.70;99.90
65692;DHT22;52411;52.716;6.696;2022-11-15T00:21:10;7.70;99.90
65692;DHT22;52411;52.716;6.696;2022-11-15T00:23:35;7.80;99.90
65692;DHT22;52411;52.716;6.696;2022-11-15T00:26:01;7.80;99.90
65692;DHT22;52411;52.716;6.696;2022-11-15T00:28:27;7.90;99.90
65692;DHT22;52411;52.716;6.696;2022-11-15T00:30:53;7.90;99.90
65692;DHT22;52411;52.716;6.696;2022-11-15T00:33:18;7.90;99.90
65692;DHT22;52411;52.716;6.696;2022-11-15T00:35:44;8.00;99.90
65692;DHT22;52411;52.716;6.696;2022-11-15T00:38:10;8.00;99.90
65692;DHT22;52411;52.716;6.696;2022-11-15T00:40:35;8.10;99.90
65692;DHT22;52411;52.716;6.696;2022-11-15T00:43:01;8.10;99.90
65692;DHT22;52411;52.716;6.696;2022-11-15T00:45:26;8.10;99.90
65692;DHT22;52411;52.716;6.696;2022-11-15T00:47:52;8.20;99.90
65692;DHT22;52411;52.716;6.696;2022-11-15T00:50:18;8.10;99.90
65692;DHT22;52411;52.716;6.696;2022-11-15T00:52:44;8.20;99.90
65692;DHT22;52411;52.716;6.696;2022-11-15T00:55:15;8.20;99.90
65692;DHT22;52411;52.716;6.696;2022-11-15T00:57:41;8.20;99.90
65692;DHT22;52411;52.716;6.696;2022-11-15T01:00:07;8.20;99.90
65692;DHT22;52411;52.716;6.696;2022-11-15T01:02:32;8.20;99.90
65692;DHT22;52411;52.716;6.696;2022-11-15T01:04:58;8.30;99.90
65692;DHT22;52411;52.716;6.696;2022-11-15T01:07:24;8.30;99.90
65692;DHT22;52411;52.716;6.696;2022-11-15T01:09:49;8.30;99.90
65692;DHT22;52411;52.716;6.696;2022-11-15T01:12:15;8.30;99.90
65692;DHT22;52411;52.716;6.696;2022-11-15T01:14:40;8.30;99.90
65692;DHT22;52411;52.716;6.696;2022-11-15T01:17:06;8.30;99.90
65692;DHT22;52411;52.716;6.696;2022-11-15T01:19:32;8.30;99.90
65692;DHT22;52411;52.716;6.696;2022-11-15T01:21:57;8.30;99.90
65692;DHT22;52411;52.716;6.696;2022-11-15T01:24:23;8.30;99.90
65692;DHT22;52411;52.716;6.696;2022-11-15T01:26:48;8.30;99.90
65692;DHT22;52411;52.716;6.696;2022-11-15T01:29:14;8.30;99.90
65692;DHT22;52411;52.716;6.696;2022-11-15T01:31:39;8.30;99.90
65692;DHT22;52411;52.716;6.696;2022-11-15T01:34:05;8.30;99.90
65692;DHT22;52411;52.716;6.696;2022-11-15T01:36:31;8.30;99.90
65692;DHT22;52411;52.716;6.696;2022-11-15T01:38:57;8.40;99.90
65692;DHT22;52411;52.716;6.696;2022-11-15T01:41:30;8.40;99.90
65692;DHT22;52411;52.716;6.696;2022-11-15T01:44:30;8.40;99.90
65692;DHT22;52411;52.716;6.696;2022-11-15T01:46:46;8.40;99.90
65692;DHT22;52411;52.716;6.696;2022-11-15T01:49:19;8.40;99.90
65692;DHT22;52411;52.716;6.696;2022-11-15T01:51:45;8.40;99.90
65692;DHT22;52411;52.716;6.696;2022-11-15T01:54:15;8.50;99.90
65692;DHT22;52411;52.716;6.696;2022-11-15T01:56:51;8.50;99.90
65692;DHT22;52411;52.716;6.696;2022-11-15T01:59:19;8.50;99.90
65692;DHT22;52411;52.716;6.696;2022-11-15T02:01:45;8.50;99.90
65692;DHT22;52411;52.716;6.696;2022-11-15T02:04:15;8.60;99.90
65692;DHT22;52411;52.716;6.696;2022-11-15T02:06:42;8.60;99.90
65692;DHT22;52411;52.716;6.696;2022-11-15T02:09:08;8.60;99.90
65692;DHT22;52411;52.716;6.696;2022-11-15T02:11:35;8.60;99.90
65692;DHT22;52411;52.716;6.696;2022-11-15T02:14:03;8.60;99.90
65692;DHT22;52411;52.716;6.696;2022-11-15T02:16:42;8.60;99.90
65692;DHT22;52411;52.716;6.696;2022-11-15T02:19:28;8.60;99.90
65692;DHT22;52411;52.716;6.696;2022-11-15T02:22:21;8.60;99.90
65692;DHT22;52411;52.716;6.696;2022-11-15T02:27:47;8.70;99.90
65692;DHT22;52411;52.716;6.696;2022-11-15T02:33:21;8.70;99.90
65692;DHT22;52411;52.716;6.696;2022-11-15T02:36:00;8.70;99.90
65692;DHT22;52411;52.716;6.696;2022-11-15T02:38:45;8.70;99.90
65692;DHT22;52411;52.716;6.696;2022-11-15T02:42:02;8.70;99.90
65692;DHT22;52411;52.716;6.696;2022-11-15T02:44:07;8.70;99.90
65692;DHT22;52411;52.716;6.696;2022-11-15T02:49:34;8.80;99.90
65692;DHT22;52411;52.716;6.696;2022-11-15T02:52:00;8.80;99.90
65692;DHT22;52411;52.716;6.696;2022-11-15T02:54:30;8.80;99.90
65692;DHT22;52411;52.716;6.696;2022-11-15T02:57:41;8.80;99.90
65692;DHT22;52411;52.716;6.696;2022-11-15T03:00:05;8.90;99.90
65692;DHT22;52411;52.716;6.696;2022-11-15T03:05:53;8.90;99.90
65692;DHT22;52411;52.716;6.696;2022-11-15T03:08:44;8.90;99.90
65692;DHT22;52411;52.716;6.696;2022-11-15T03:11:17;8.90;99.90
65692;DHT22;52411;52.716;6.696;2022-11-15T03:13:46;8.90;99.90
65692;DHT22;52411;52.716;6.696;2022-11-15T03:16:29;8.90;99.90
65692;DHT22;52411;52.716;6.696;2022-11-15T03:19:11;9.00;99.90
65692;DHT22;52411;52.716;6.696;2022-11-15T03:21:39;9.00;99.90
65692;DHT22;52411;52.716;6.696;2022-11-15T03:24:06;9.00;99.90
65692;DHT22;52411;52.716;6.696;2022-11-15T03:26:34;9.00;99.90
65692;DHT22;52411;52.716;6.696;2022-11-15T03:29:15;9.00;99.90
65692;DHT22;52411;52.716;6.696;2022-11-15T03:31:47;9.00;99.90
65692;DHT22;52411;52.716;6.696;2022-11-15T03:34:26;9.00;99.90
65692;DHT22;52411;52.716;6.696;2022-11-15T03:36:53;9.00;99.90
65692;DHT22;52411;52.716;6.696;2022-11-15T03:39:19;9.10;99.90
65692;DHT22;52411;52.716;6.696;2022-11-15T03:42:17;9.10;99.90
65692;DHT22;52411;52.716;6.696;2022-11-15T03:45:02;9.10;99.90
65692;DHT22;52411;52.716;6.696;2022-11-15T03:47:48;9.20;99.90
65692;DHT22;52411;52.716;6.696;2022-11-15T03:50:19;9.20;99.90
65692;DHT22;52411;52.716;6.696;2022-11-15T03:52:47;9.20;99.90
65692;DHT22;52411;52.716;6.696;2022-11-15T03:55:17;9.30;99.90
65692;DHT22;52411;52.716;6.696;2022-11-15T03:57:43;9.30;99.90
65692;DHT22;52411;52.716;6.696;2022-11-15T04:00:09;9.30;99.90
65692;DHT22;52411;52.716;6.696;2022-11-15T04:02:35;9.40;99.90
65692;DHT22;52411;52.716;6.696;2022-11-15T04:05:01;9.40;99.90
65692;DHT22;52411;52.716;6.696;2022-11-15T04:07:26;9.40;99.90
65692;DHT22;52411;52.716;6.696;2022-11-15T04:09:52;9.40;99.90
65692;DHT22;52411;52.716;6.696;2022-11-15T04:12:37;9.50;99.90
65692;DHT22;52411;52.716;6.696;2022-11-15T04:15:04;9.50;99.90
65692;DHT22;52411;52.716;6.696;2022-11-15T04:19:59;9.50;99.90
65692;DHT22;52411;52.716;6.696;2022-11-15T04:22:43;9.60;99.90
65692;DHT22;52411;52.716;6.696;2022-11-15T04:25:28;9.60;99.90
65692;DHT22;52411;52.716;6.696;2022-11-15T04:27:54;9.70;99.90
65692;DHT22;52411;52.716;6.696;2022-11-15T04:30:19;9.60;99.90
65692;DHT22;52411;52.716;6.696;2022-11-15T04:32:45;9.70;99.90
65692;DHT22;52411;52.716;6.696;2022-11-15T04:35:10;9.70;99.90
65692;DHT22;52411;52.716;6.696;2022-11-15T04:37:37;9.70;99.90
65692;DHT22;52411;52.716;6.696;2022-11-15T04:40:03;9.70;99.90
65692;DHT22;52411;52.716;6.696;2022-11-15T04:42:28;9.80;99.90
65692;DHT22;52411;52.716;6.696;2022-11-15T04:44:54;9.80;99.90
65692;DHT22;52411;52.716;6.696;2022-11-15T04:47:19;9.90;99.90
65692;DHT22;52411;52.716;6.696;2022-11-15T04:49:45;9.90;99.90
65692;DHT22;52411;52.716;6.696;2022-11-15T04:52:10;9.90;99.90
65692;DHT22;52411;52.716;6.696;2022-11-15T04:54:36;10.00;99.90
65692;DHT22;52411;52.716;6.696;2022-11-15T04:57:02;10.00;99.90
65692;DHT22;52411;52.716;6.696;2022-11-15T04:59:27;10.00;99.90
65692;DHT22;52411;52.716;6.696;2022-11-15T05:01:53;10.00;99.90
65692;DHT22;52411;52.716;6.696;2022-11-15T05:04:18;10.10;99.90
65692;DHT22;52411;52.716;6.696;2022-11-15T05:06:45;10.10;99.90
65692;DHT22;52411;52.716;6.696;2022-11-15T05:09:11;10.10;99.90
65692;DHT22;52411;52.716;6.696;2022-11-15T05:11:38;10.20;99.90
65692;DHT22;52411;52.716;6.696;2022-11-15T05:14:04;10.20;99.90
65692;DHT22;52411;52.716;6.696;2022-11-15T05:16:29;10.20;99.90
65692;DHT22;52411;52.716;6.696;2022-11-15T05:18:55;10.20;99.90
65692;DHT22;52411;52.716;6.696;2022-11-15T05:21:21;10.20;99.90
65692;DHT22;52411;52.716;6.696;2022-11-15T05:23:46;10.30;99.90
65692;DHT22;52411;52.716;6.696;2022-11-15T05:26:12;10.30;99.90
65692;DHT22;52411;52.716;6.696;2022-11-15T05:28:39;10.40;99.90
65692;DHT22;52411;52.716;6.696;2022-11-15T05:31:07;10.40;99.90
65692;DHT22;52411;52.716;6.696;2022-11-15T05:33:34;10.40;99.90
65692;DHT22;52411;52.716;6.696;2022-11-15T05:36:09;10.50;99.90
65692;DHT22;52411;52.716;6.696;2022-11-15T05:38:37;10.50;99.90
65692;DHT22;52411;52.716;6.696;2022-11-15T05:41:03;10.50;99.90
65692;DHT22;52411;52.716;6.696;2022-11-15T05:43:31;10.60;99.90
65692;DHT22;52411;52.716;6.696;2022-11-15T05:45:59;10.60;99.90
65692;DHT22;52411;52.716;6.696;2022-11-15T05:48:26;10.60;99.90
65692;DHT22;52411;52.716;6.696;2022-11-15T05:50:52;10.70;99.90
65692;DHT22;52411;52.716;6.696;2022-11-15T05:53:19;10.70;99.90
65692;DHT22;52411;52.716;6.696;2022-11-15T05:55:46;10.70;99.90
65692;DHT22;52411;52.716;6.696;2022-11-15T05:58:12;10.80;99.90
65692;DHT22;52411;52.716;6.696;2022-11-15T06:00:38;10.80;99.90
65692;DHT22;52411;52.716;6.696;2022-11-15T06:03:04;10.80;99.90
65692;DHT22;52411;52.716;6.696;2022-11-15T06:05:29;10.80;99.90
65692;DHT22;52411;52.716;6.696;2022-11-15T06:07:58;10.90;99.90
65692;DHT22;52411;52.716;6.696;2022-11-15T06:10:24;10.90;99.90
65692;DHT22;52411;52.716;6.696;2022-11-15T06:13:00;10.90;99.90
65692;DHT22;52411;52.716;6.696;2022-11-15T06:15:26;11.00;99.90
65692;DHT22;52411;52.716;6.696;2022-11-15T06:17:52;10.90;99.90
65692;DHT22;52411;52.716;6.696;2022-11-15T06:20:17;11.00;99.90
65692;DHT22;52411;52.716;6.696;2022-11-15T06:22:43;11.00;99.90
65692;DHT22;52411;52.716;6.696;2022-11-15T06:25:09;11.00;99.90
65692;DHT22;52411;52.716;6.696;2022-11-15T06:27:34;11.10;99.90
65692;DHT22;52411;52.716;6.696;2022-11-15T06:30:00;11.10;99.90
65692;DHT22;52411;52.716;6.696;2022-11-15T06:32:26;11.10;99.90
65692;DHT22;52411;52.716;6.696;2022-11-15T06:34:51;11.10;99.90
65692;DHT22;52411;52.716;6.696;2022-11-15T06:37:17;11.10;99.90
65692;DHT22;52411;52.716;6.696;2022-11-15T06:39:42;11.10;99.90
65692;DHT22;52411;52.716;6.696;2022-11-15T06:42:08;11.10;99.90
65692;DHT22;52411;52.716;6.696;2022-11-15T06:44:34;11.10;99.90
65692;DHT22;52411;52.716;6.696;2022-11-15T06:47:00;11.10;99.90
65692;DHT22;52411;52.716;6.696;2022-11-15T06:49:25;11.10;99.90
65692;DHT22;52411;52.716;6.696;2022-11-15T06:51:51;11.10;99.90
65692;DHT22;52411;52.716;6.696;2022-11-15T06:54:16;11.20;99.90
65692;DHT22;52411;52.716;6.696;2022-11-15T06:56:42;11.20;99.90
65692;DHT22;52411;52.716;6.696;2022-11-15T06:59:07;11.20;99.90
65692;DHT22;52411;52.716;6.696;2022-11-15T07:01:33;11.20;99.90
65692;DHT22;52411;52.716;6.696;2022-11-15T07:03:59;11.20;99.90
65692;DHT22;52411;52.716;6.696;2022-11-15T07:06:24;11.30;99.90
65692;DHT22;52411;52.716;6.696;2022-11-15T07:08:50;11.30;99.90
65692;DHT22;52411;52.716;6.696;2022-11-15T07:11:15;11.30;99.90
65692;DHT22;52411;52.716;6.696;2022-11-15T07:13:41;11.30;99.90
65692;DHT22;52411;52.716;6.696;2022-11-15T07:16:08;11.30;99.90
65692;DHT22;52411;52.716;6.696;2022-11-15T07:18:36;11.30;99.90
65692;DHT22;52411;52.716;6.696;2022-11-15T07:21:10;11.40;99.90
65692;DHT22;52411;52.716;6.696;2022-11-15T07:23:37;11.40;99.90
65692;DHT22;52411;52.716;6.696;2022-11-15T07:26:03;11.30;99.90
65692;DHT22;52411;52.716;6.696;2022-11-15T07:28:29;11.40;99.90
65692;DHT22;52411;52.716;6.696;2022-11-15T07:30:54;11.40;99.90
65692;DHT22;52411;52.716;6.696;2022-11-15T07:33:20;11.40;99.90
65692;DHT22;52411;52.716;6.696;2022-11-15T07:35:46;11.50;99.90
65692;DHT22;52411;52.716;6.696;2022-11-15T07:38:15;11.50;99.90
65692;DHT22;52411;52.716;6.696;2022-11-15T07:40:41;11.50;99.90
65692;DHT22;52411;52.716;6.696;2022-11-15T07:43:07;11.50;99.90
65692;DHT22;52411;52.716;6.696;2022-11-15T07:45:33;11.60;99.90
65692;DHT22;52411;52.716;6.696;2022-11-15T07:48:00;11.60;99.90
65692;DHT22;52411;52.716;6.696;2022-11-15T07:50:26;11.60;99.90
65692;DHT22;52411;52.716;6.696;2022-11-15T07:52:57;11.70;99.90
65692;DHT22;52411;52.716;6.696;2022-11-15T07:55:27;11.70;99.90
65692;DHT22;52411;52.716;6.696;2022-11-15T07:58:03;11.70;99.90
65692;DHT22;52411;52.716;6.696;2022-11-15T08:00:30;11.70;99.90
65692;DHT22;52411;52.716;6.696;2022-11-15T08:03:15;11.80;99.90
65692;DHT22;52411;52.716;6.696;2022-11-15T08:05:42;11.80;99.90
65692;DHT22;52411;52.716;6.696;2022-11-15T08:08:10;11.80;99.90
65692;DHT22;52411;52.716;6.696;2022-11-15T08:10:36;11.90;99.90
65692;DHT22;52411;52.716;6.696;2022-11-15T08:13:04;11.90;99.90
65692;DHT22;52411;52.716;6.696;2022-11-15T08:15:30;11.90;99.90
65692;DHT22;52411;52.716;6.696;2022-11-15T08:17:57;11.90;99.90
65692;DHT22;52411;52.716;6.696;2022-11-15T08:20:25;11.90;99.90
65692;DHT22;52411;52.716;6.696;2022-11-15T08:22:51;11.90;99.90
65692;DHT22;52411;52.716;6.696;2022-11-15T08:25:16;11.90;99.90
65692;DHT22;52411;52.716;6.696;2022-11-15T08:27:42;11.90;99.90
65692;DHT22;52411;52.716;6.696;2022-11-15T08:30:08;11.90;99.90
65692;DHT22;52411;52.716;6.696;2022-11-15T08:32:34;12.00;99.90
65692;DHT22;52411;52.716;6.696;2022-11-15T08:34:59;12.00;99.90
65692;DHT22;52411;52.716;6.696;2022-11-15T08:37:25;12.00;99.90
65692;DHT22;52411;52.716;6.696;2022-11-15T08:39:51;12.10;99.90
65692;DHT22;52411;52.716;6.696;2022-11-15T08:42:16;12.00;99.90
65692;DHT22;52411;52.716;6.696;2022-11-15T08:44:42;12.10;99.90
65692;DHT22;52411;52.716;6.696;2022-11-15T08:47:09;12.10;99.90
65692;DHT22;52411;52.716;6.696;2022-11-15T08:49:36;12.10;99.90
65692;DHT22;52411;52.716;6.696;2022-11-15T08:52:01;12.10;99.90
65692;DHT22;52411;52.716;6.696;2022-11-15T08:54:27;12.10;99.90
65692;DHT22;52411;52.716;6.696;2022-11-15T08:56:53;12.20;99.90
65692;DHT22;52411;52.716;6.696;2022-11-15T08:59:18;12.20;99.90
65692;DHT22;52411;52.716;6.696;2022-11-15T09:01:44;12.20;99.90
65692;DHT22;52411;52.716;6.696;2022-11-15T09:04:09;12.30;99.90
65692;DHT22;52411;52.716;6.696;2022-11-15T09:06:35;12.30;99.90
65692;DHT22;52411;52.716;6.696;2022-11-15T09:09:01;12.30;99.90
65692;DHT22;52411;52.716;6.696;2022-11-15T09:11:27;12.30;99.90
65692;DHT22;52411;52.716;6.696;2022-11-15T09:13:52;12.30;99.90
65692;DHT22;52411;52.716;6.696;2022-11-15T09:16:18;12.30;99.90
65692;DHT22;52411;52.716;6.696;2022-11-15T09:18:44;12.40;99.90
65692;DHT22;52411;52.716;6.696;2022-11-15T09:21:10;12.40;99.90
65692;DHT22;52411;52.716;6.696;2022-11-15T09:23:35;12.40;99.90
65692;DHT22;52411;52.716;6.696;2022-11-15T09:26:03;12.40;99.90
65692;DHT22;52411;52.716;6.696;2022-11-15T09:28:29;12.40;99.90
65692;DHT22;52411;52.716;6.696;2022-11-15T09:30:57;12.40;99.90
65692;DHT22;52411;52.716;6.696;2022-11-15T09:33:24;12.40;99.90
65692;DHT22;52411;52.716;6.696;2022-11-15T09:35:49;12.40;99.90
65692;DHT22;52411;52.716;6.696;2022-11-15T09:38:15;12.40;99.90
65692;DHT22;52411;52.716;6.696;2022-11-15T09:40:40;12.30;99.90
65692;DHT22;52411;52.716;6.696;2022-11-15T09:43:39;12.30;99.90
65692;DHT22;52411;52.716;6.696;2022-11-15T09:49:00;12.30;99.90
65692;DHT22;52411;52.716;6.696;2022-11-15T09:51:56;12.30;99.90
65692;DHT22;52411;52.716;6.696;2022-11-15T09:54:36;12.30;99.90
65692;DHT22;52411;52.716;6.696;2022-11-15T09:57:38;12.20;99.90
65692;DHT22;52411;52.716;6.696;2022-11-15T10:00:22;12.20;99.90
65692;DHT22;52411;52.716;6.696;2022-11-15T10:03:27;12.20;99.90
65692;DHT22;52411;52.716;6.696;2022-11-15T10:05:56;12.10;99.90
65692;DHT22;52411;52.716;6.696;2022-11-15T10:11:28;12.20;99.90
65692;DHT22;52411;52.716;6.696;2022-11-15T10:13:58;12.20;99.90
65692;DHT22;52411;52.716;6.696;2022-11-15T10:19:27;12.50;99.90
65692;DHT22;52411;52.716;6.696;2022-11-15T10:24:37;12.70;99.90
65692;DHT22;52411;52.716;6.696;2022-11-15T10:27:13;12.70;99.90
65692;DHT22;52411;52.716;6.696;2022-11-15T10:29:50;12.80;99.90
65692;DHT22;52411;52.716;6.696;2022-11-15T10:32:18;12.90;99.90
65692;DHT22;52411;52.716;6.696;2022-11-15T10:34:44;12.90;99.90
65692;DHT22;52411;52.716;6.696;2022-11-15T10:37:10;12.80;99.90
65692;DHT22;52411;52.716;6.696;2022-11-15T10:39:36;12.80;99.90
65692;DHT22;52411;52.716;6.696;2022-11-15T10:42:26;12.80;99.90
65692;DHT22;52411;52.716;6.696;2022-11-15T10:44:52;12.80;99.90
65692;DHT22;52411;52.716;6.696;2022-11-15T10:47:31;12.80;99.90
65692;DHT22;52411;52.716;6.696;2022-11-15T10:50:04;12.80;99.90
65692;DHT22;52411;52.716;6.696;2022-11-15T10:52:32;12.90;99.90
65692;DHT22;52411;52.716;6.696;2022-11-15T10:55:19;12.90;99.90
65692;DHT22;52411;52.716;6.696;2022-11-15T10:57:52;13.00;99.90
65692;DHT22;52411;52.716;6.696;2022-11-15T11:08:00;13.10;99.90
65692;DHT22;52411;52.716;6.696;2022-11-15T11:10:27;12.90;99.90
65692;DHT22;52411;52.716;6.696;2022-11-15T11:12:53;12.90;99.90
65692;DHT22;52411;52.716;6.696;2022-11-15T11:15:18;12.80;99.90
65692;DHT22;52411;52.716;6.696;2022-11-15T11:17:53;12.80;99.90
65692;DHT22;52411;52.716;6.696;2022-11-15T11:20:53;12.80;99.90
65692;DHT22;52411;52.716;6.696;2022-11-15T11:32:31;12.60;99.90
65692;DHT22;52411;52.716;6.696;2022-11-15T11:35:13;12.70;99.90
65692;DHT22;52411;52.716;6.696;2022-11-15T11:37:54;12.80;99.90
65692;DHT22;52411;52.716;6.696;2022-11-15T11:40:30;12.90;99.90
65692;DHT22;52411;52.716;6.696;2022-11-15T11:43:30;12.80;99.90
65692;DHT22;52411;52.716;6.696;2022-11-15T11:46:25;12.90;99.90
65692;DHT22;52411;52.716;6.696;2022-11-15T11:49:00;12.70;99.90
65692;DHT22;52411;52.716;6.696;2022-11-15T11:54:19;12.70;99.90
65692;DHT22;52411;52.716;6.696;2022-11-15T11:56:45;12.80;99.90
65692;DHT22;52411;52.716;6.696;2022-11-15T11:59:25;12.90;99.90
65692;DHT22;52411;52.716;6.696;2022-11-15T12:01:54;13.00;99.90
65692;DHT22;52411;52.716;6.696;2022-11-15T12:04:34;13.10;99.90
65692;DHT22;52411;52.716;6.696;2022-11-15T12:07:02;13.10;99.90
65692;DHT22;52411;52.716;6.696;2022-11-15T12:09:43;13.20;99.90
65692;DHT22;52411;52.716;6.696;2022-11-15T12:12:23;13.30;99.90
65692;DHT22;52411;52.716;6.696;2022-11-15T12:15:03;13.40;99.90
65692;DHT22;52411;52.716;6.696;2022-11-15T12:17:30;13.50;99.90
65692;DHT22;52411;52.716;6.696;2022-11-15T12:20:03;13.50;99.90
65692;DHT22;52411;52.716;6.696;2022-11-15T12:30:52;13.90;99.90
65692;DHT22;52411;52.716;6.696;2022-11-15T12:33:46;14.00;99.90
65692;DHT22;52411;52.716;6.696;2022-11-15T12:36:27;14.10;99.90
65692;DHT22;52411;52.716;6.696;2022-11-15T12:41:32;14.20;99.90
65692;DHT22;52411;52.716;6.696;2022-11-15T12:43:59;14.00;99.90
65692;DHT22;52411;52.716;6.696;2022-11-15T12:59:56;13.90;99.90
65692;DHT22;52411;52.716;6.696;2022-11-15T13:17:54;13.40;99.90
65692;DHT22;52411;52.716;6.696;2022-11-15T13:20:26;13.20;99.90
65692;DHT22;52411;52.716;6.696;2022-11-15T13:23:14;13.20;99.90
65692;DHT22;52411;52.716;6.696;2022-11-15T13:30:49;13.10;99.90
65692;DHT22;52411;52.716;6.696;2022-11-15T13:33:25;13.10;99.90
65692;DHT22;52411;52.716;6.696;2022-11-15T13:35:57;13.10;99.90
65692;DHT22;52411;52.716;6.696;2022-11-15T13:38:34;13.10;99.90
65692;DHT22;52411;52.716;6.696;2022-11-15T13:43:41;13.00;99.90
65692;DHT22;52411;52.716;6.696;2022-11-15T13:46:26;13.10;99.90
65692;DHT22;52411;52.716;6.696;2022-11-15T13:48:57;13.10;99.90
65692;DHT22;52411;52.716;6.696;2022-11-15T13:51:58;13.10;99.90
65692;DHT22;52411;52.716;6.696;2022-11-15T13:54:29;13.10;99.90
65692;DHT22;52411;52.716;6.696;2022-11-15T13:59:28;13.10;99.90
65692;DHT22;52411;52.716;6.696;2022-11-15T14:01:55;13.10;99.90
65692;DHT22;52411;52.716;6.696;2022-11-15T14:04:23;13.00;99.90
65692;DHT22;52411;52.716;6.696;2022-11-15T14:06:53;13.00;99.90
65692;DHT22;52411;52.716;6.696;2022-11-15T14:09:40;13.00;99.90
65692;DHT22;52411;52.716;6.696;2022-11-15T14:14:52;12.80;99.90
65692;DHT22;52411;52.716;6.696;2022-11-15T14:17:34;12.80;99.90
65692;DHT22;52411;52.716;6.696;2022-11-15T14:20:00;12.70;99.90
65692;DHT22;52411;52.716;6.696;2022-11-15T14:22:30;12.70;99.90
65692;DHT22;52411;52.716;6.696;2022-11-15T14:25:17;12.70;99.90
65692;DHT22;52411;52.716;6.696;2022-11-15T14:30:29;12.50;99.90
65692;DHT22;52411;52.716;6.696;2022-11-15T14:32:55;12.50;99.90
65692;DHT22;52411;52.716;6.696;2022-11-15T14:35:22;12.40;99.90
65692;DHT22;52411;52.716;6.696;2022-11-15T14:37:49;12.40;99.90
65692;DHT22;52411;52.716;6.696;2022-11-15T14:40:17;12.40;99.90
65692;DHT22;52411;52.716;6.696;2022-11-15T14:42:45;12.40;99.90
65692;DHT22;52411;52.716;6.696;2022-11-15T14:45:21;12.30;99.90
65692;DHT22;52411;52.716;6.696;2022-11-15T14:47:47;12.20;99.90
65692;DHT22;52411;52.716;6.696;2022-11-15T14:50:15;12.30;99.90
65692;DHT22;52411;52.716;6.696;2022-11-15T14:52:42;12.20;99.90
65692;DHT22;52411;52.716;6.696;2022-11-15T14:55:21;12.20;99.90
65692;DHT22;52411;52.716;6.696;2022-11-15T14:57:47;12.20;99.90
65692;DHT22;52411;52.716;6.696;2022-11-15T15:00:13;12.20;99.90
65692;DHT22;52411;52.716;6.696;2022-11-15T15:02:41;12.20;99.90
65692;DHT22;52411;52.716;6.696;2022-11-15T15:05:15;12.20;99.90
65692;DHT22;52411;52.716;6.696;2022-11-15T15:07:41;12.20;99.90
65692;DHT22;52411;52.716;6.696;2022-11-15T15:10:07;12.20;99.90
65692;DHT22;52411;52.716;6.696;2022-11-15T15:12:33;12.20;99.90
65692;DHT22;52411;52.716;6.696;2022-11-15T15:14:59;12.20;99.90
65692;DHT22;52411;52.716;6.696;2022-11-15T15:17:26;12.20;99.90
65692;DHT22;52411;52.716;6.696;2022-11-15T15:19:53;12.20;99.90
65692;DHT22;52411;52.716;6.696;2022-11-15T15:22:20;12.10;99.90
65692;DHT22;52411;52.716;6.696;2022-11-15T15:24:51;12.10;99.90
65692;DHT22;52411;52.716;6.696;2022-11-15T15:27:16;12.00;99.90
65692;DHT22;52411;52.716;6.696;2022-11-15T15:29:42;12.00;99.90
65692;DHT22;52411;52.716;6.696;2022-11-15T15:32:09;12.00;99.90
65692;DHT22;52411;52.716;6.696;2022-11-15T15:34:35;11.90;99.90
65692;DHT22;52411;52.716;6.696;2022-11-15T15:39:33;11.80;99.90
65692;DHT22;52411;52.716;6.696;2022-11-15T15:41:59;11.80;99.90
65692;DHT22;52411;52.716;6.696;2022-11-15T15:44:25;11.80;99.90
65692;DHT22;52411;52.716;6.696;2022-11-15T15:46:50;11.70;99.90
65692;DHT22;52411;52.716;6.696;2022-11-15T15:49:16;11.70;99.90
65692;DHT22;52411;52.716;6.696;2022-11-15T15:51:42;11.70;99.90
65692;DHT22;52411;52.716;6.696;2022-11-15T15:54:09;11.60;99.90
65692;DHT22;52411;52.716;6.696;2022-11-15T15:56:34;11.60;99.90
65692;DHT22;52411;52.716;6.696;2022-11-15T15:59:00;11.60;99.90
65692;DHT22;52411;52.716;6.696;2022-11-15T16:01:25;11.50;99.90
65692;DHT22;52411;52.716;6.696;2022-11-15T16:03:51;11.50;99.90
65692;DHT22;52411;52.716;6.696;2022-11-15T16:06:43;11.50;99.90
65692;DHT22;52411;52.716;6.696;2022-11-15T16:09:16;11.50;99.90
65692;DHT22;52411;52.716;6.696;2022-11-15T16:11:43;11.50;99.90
65692;DHT22;52411;52.716;6.696;2022-11-15T16:14:09;11.50;99.90
65692;DHT22;52411;52.716;6.696;2022-11-15T16:16:35;11.50;99.90
65692;DHT22;52411;52.716;6.696;2022-11-15T16:19:01;11.50;99.90
65692;DHT22;52411;52.716;6.696;2022-11-15T16:21:27;11.60;99.90
65692;DHT22;52411;52.716;6.696;2022-11-15T16:23:53;11.60;99.90
65692;DHT22;52411;52.716;6.696;2022-11-15T16:26:29;11.60;99.90
65692;DHT22;52411;52.716;6.696;2022-11-15T16:28:55;11.60;99.90
65692;DHT22;52411;52.716;6.696;2022-11-15T16:31:21;11.70;99.90
65692;DHT22;52411;52.716;6.696;2022-11-15T16:33:47;11.70;99.90
65692;DHT22;52411;52.716;6.696;2022-11-15T16:38:43;11.70;99.90
65692;DHT22;52411;52.716;6.696;2022-11-15T16:41:09;11.70;99.90
65692;DHT22;52411;52.716;6.696;2022-11-15T16:43:34;11.70;99.90
65692;DHT22;52411;52.716;6.696;2022-11-15T16:46:08;11.80;99.90
65692;DHT22;52411;52.716;6.696;2022-11-15T16:48:34;11.80;99.90
65692;DHT22;52411;52.716;6.696;2022-11-15T16:50:59;11.80;99.90
65692;DHT22;52411;52.716;6.696;2022-11-15T16:53:26;11.80;99.90
65692;DHT22;52411;52.716;6.696;2022-11-15T16:55:53;11.80;99.90
65692;DHT22;52411;52.716;6.696;2022-11-15T16:58:19;11.80;99.90
65692;DHT22;52411;52.716;6.696;2022-11-15T17:00:50;11.90;99.90
65692;DHT22;52411;52.716;6.696;2022-11-15T17:03:16;11.90;99.90
65692;DHT22;52411;52.716;6.696;2022-11-15T17:05:41;11.90;99.90
65692;DHT22;52411;52.716;6.696;2022-11-15T17:08:07;11.90;99.90
65692;DHT22;52411;52.716;6.696;2022-11-15T17:10:33;11.90;99.90
65692;DHT22;52411;52.716;6.696;2022-11-15T17:12:58;11.90;99.90
65692;DHT22;52411;52.716;6.696;2022-11-15T17:15:24;11.90;99.90
65692;DHT22;52411;52.716;6.696;2022-11-15T17:17:51;11.90;99.90
65692;DHT22;52411;52.716;6.696;2022-11-15T17:20:19;11.90;99.90
65692;DHT22;52411;52.716;6.696;2022-11-15T17:22:45;11.90;99.90
65692;DHT22;52411;52.716;6.696;2022-11-15T17:25:12;11.90;99.90
65692;DHT22;52411;52.716;6.696;2022-11-15T17:27:37;11.90;99.90
65692;DHT22;52411;52.716;6.696;2022-11-15T17:30:04;11.90;99.90
65692;DHT22;52411;52.716;6.696;2022-11-15T17:32:30;11.90;99.90
65692;DHT22;52411;52.716;6.696;2022-11-15T17:34:55;12.00;99.90
65692;DHT22;52411;52.716;6.696;2022-11-15T17:37:21;12.00;99.90